sensor_id;sensor_type;location;lat;lon;timestamp;P1;durP1;ratioP1;P2;durP2;ratioP2
66264;SDS011;53055;44.648;21.148;2022-12-18T00:00:45;58.97;;;46.88;;
66264;SDS011;53055;44.648;21.148;2022-12-18T00:03:12;42.45;;;33.42;;
66264;SDS011;53055;44.648;21.148;2022-12-18T00:05:45;45.58;;;34.95;;
66264;SDS011;53055;44.648;21.148;2022-12-18T00:08:11;38.05;;;30.00;;
66264;SDS011;53055;44.648;21.148;2022-12-18T00:10:37;56.13;;;43.05;;
66264;SDS011;53055;44.648;21.148;2022-12-18T00:13:03;52.90;;;42.10;;
66264;SDS011;53055;44.648;21.148;2022-12-18T00:15:29;41.45;;;32.22;;
66264;SDS011;53055;44.648;21.148;2022-12-18T00:17:55;34.88;;;28.15;;
66264;SDS011;53055;44.648;21.148;2022-12-18T00:20:21;41.67;;;31.48;;
66264;SDS011;53055;44.648;21.148;2022-12-18T00:22:51;43.45;;;33.22;;
66264;SDS011;53055;44.648;21.148;2022-12-18T00:25:17;79.65;;;53.88;;
66264;SDS011;53055;44.648;21.148;2022-12-18T00:27:43;40.13;;;30.33;;
66264;SDS011;53055;44.648;21.148;2022-12-18T00:30:09;58.95;;;40.15;;
66264;SDS011;53055;44.648;21.148;2022-12-18T00:32:35;209.95;;;116.55;;
66264;SDS011;53055;44.648;21.148;2022-12-18T00:35:02;377.10;;;203.27;;
66264;SDS011;53055;44.648;21.148;2022-12-18T00:37:28;310.48;;;205.50;;
66264;SDS011;53055;44.648;21.148;2022-12-18T00:39:54;159.93;;;112.80;;
66264;SDS011;53055;44.648;21.148;2022-12-18T00:42:20;136.85;;;94.97;;
66264;SDS011;53055;44.648;21.148;2022-12-18T00:45:05;79.60;;;60.45;;
66264;SDS011;53055;44.648;21.148;2022-12-18T00:47:31;138.23;;;103.93;;
66264;SDS011;53055;44.648;21.148;2022-12-18T00:49:57;83.93;;;65.40;;
66264;SDS011;53055;44.648;21.148;2022-12-18T00:52:23;79.45;;;60.60;;
66264;SDS011;53055;44.648;21.148;2022-12-18T00:54:49;62.40;;;47.90;;
66264;SDS011;53055;44.648;21.148;2022-12-18T00:57:15;36.05;;;27.67;;
66264;SDS011;53055;44.648;21.148;2022-12-18T00:59:41;37.50;;;29.80;;
66264;SDS011;53055;44.648;21.148;2022-12-18T01:02:07;51.25;;;41.80;;
66264;SDS011;53055;44.648;21.148;2022-12-18T01:04:33;37.10;;;28.70;;
66264;SDS011;53055;44.648;21.148;2022-12-18T01:07:00;36.20;;;28.63;;
66264;SDS011;53055;44.648;21.148;2022-12-18T01:09:26;37.08;;;28.58;;
66264;SDS011;53055;44.648;21.148;2022-12-18T01:11:52;36.83;;;28.42;;
66264;SDS011;53055;44.648;21.148;2022-12-18T01:14:18;37.22;;;27.83;;
66264;SDS011;53055;44.648;21.148;2022-12-18T01:16:44;38.33;;;29.55;;
66264;SDS011;53055;44.648;21.148;2022-12-18T01:19:10;34.03;;;26.55;;
66264;SDS011;53055;44.648;21.148;2022-12-18T01:21:36;37.35;;;29.20;;
66264;SDS011;53055;44.648;21.148;2022-12-18T01:24:02;37.20;;;27.20;;
66264;SDS011;53055;44.648;21.148;2022-12-18T01:26:28;36.80;;;28.63;;
66264;SDS011;53055;44.648;21.148;2022-12-18T01:28:55;46.63;;;37.08;;
66264;SDS011;53055;44.648;21.148;2022-12-18T01:31:23;34.60;;;27.30;;
66264;SDS011;53055;44.648;21.148;2022-12-18T01:33:50;36.65;;;28.38;;
66264;SDS011;53055;44.648;21.148;2022-12-18T01:36:17;39.85;;;29.90;;
66264;SDS011;53055;44.648;21.148;2022-12-18T01:38:43;36.28;;;28.75;;
66264;SDS011;53055;44.648;21.148;2022-12-18T01:41:10;38.55;;;29.13;;
66264;SDS011;53055;44.648;21.148;2022-12-18T01:46:08;53.08;;;40.67;;
66264;SDS011;53055;44.648;21.148;2022-12-18T01:48:34;43.97;;;33.30;;
66264;SDS011;53055;44.648;21.148;2022-12-18T01:51:00;36.60;;;26.08;;
66264;SDS011;53055;44.648;21.148;2022-12-18T01:53:26;40.40;;;29.08;;
66264;SDS011;53055;44.648;21.148;2022-12-18T01:55:54;40.85;;;30.83;;
66264;SDS011;53055;44.648;21.148;2022-12-18T01:58:22;36.70;;;28.77;;
66264;SDS011;53055;44.648;21.148;2022-12-18T02:00:49;50.58;;;38.42;;
66264;SDS011;53055;44.648;21.148;2022-12-18T02:03:15;53.13;;;37.55;;
66264;SDS011;53055;44.648;21.148;2022-12-18T02:06:00;60.67;;;45.33;;
66264;SDS011;53055;44.648;21.148;2022-12-18T02:13:32;46.03;;;36.67;;
66264;SDS011;53055;44.648;21.148;2022-12-18T02:18:29;47.70;;;37.08;;
66264;SDS011;53055;44.648;21.148;2022-12-18T02:26:14;49.17;;;35.70;;
66264;SDS011;53055;44.648;21.148;2022-12-18T02:28:50;49.00;;;38.03;;
66264;SDS011;53055;44.648;21.148;2022-12-18T02:31:18;43.58;;;33.97;;
66264;SDS011;53055;44.648;21.148;2022-12-18T02:33:48;54.65;;;43.13;;
66264;SDS011;53055;44.648;21.148;2022-12-18T02:36:15;46.80;;;36.08;;
66264;SDS011;53055;44.648;21.148;2022-12-18T02:38:42;45.22;;;35.83;;
66264;SDS011;53055;44.648;21.148;2022-12-18T02:41:09;42.88;;;32.67;;
66264;SDS011;53055;44.648;21.148;2022-12-18T02:43:36;45.92;;;38.17;;
66264;SDS011;53055;44.648;21.148;2022-12-18T02:46:20;45.85;;;35.65;;
66264;SDS011;53055;44.648;21.148;2022-12-18T02:48:48;45.75;;;35.55;;
66264;SDS011;53055;44.648;21.148;2022-12-18T02:51:22;42.88;;;33.22;;
66264;SDS011;53055;44.648;21.148;2022-12-18T02:53:51;44.78;;;36.05;;
66264;SDS011;53055;44.648;21.148;2022-12-18T02:56:24;43.97;;;34.00;;
66264;SDS011;53055;44.648;21.148;2022-12-18T03:01:19;35.92;;;27.92;;
66264;SDS011;53055;44.648;21.148;2022-12-18T03:03:55;41.00;;;31.85;;
66264;SDS011;53055;44.648;21.148;2022-12-18T03:06:27;42.42;;;32.25;;
66264;SDS011;53055;44.648;21.148;2022-12-18T03:08:58;48.03;;;36.05;;
66264;SDS011;53055;44.648;21.148;2022-12-18T03:11:25;53.13;;;39.80;;
66264;SDS011;53055;44.648;21.148;2022-12-18T03:14:11;48.40;;;36.95;;
66264;SDS011;53055;44.648;21.148;2022-12-18T03:16:39;50.10;;;37.83;;
66264;SDS011;53055;44.648;21.148;2022-12-18T03:19:08;45.78;;;32.70;;
66264;SDS011;53055;44.648;21.148;2022-12-18T03:21:38;53.05;;;39.25;;
66264;SDS011;53055;44.648;21.148;2022-12-18T03:24:06;50.40;;;36.10;;
66264;SDS011;53055;44.648;21.148;2022-12-18T03:26:33;45.38;;;33.10;;
66264;SDS011;53055;44.648;21.148;2022-12-18T03:29:08;50.95;;;37.95;;
66264;SDS011;53055;44.648;21.148;2022-12-18T03:31:35;71.57;;;53.25;;
66264;SDS011;53055;44.648;21.148;2022-12-18T03:34:04;58.67;;;44.75;;
66264;SDS011;53055;44.648;21.148;2022-12-18T03:36:31;55.63;;;41.50;;
66264;SDS011;53055;44.648;21.148;2022-12-18T03:38:57;37.80;;;28.35;;
66264;SDS011;53055;44.648;21.148;2022-12-18T03:41:43;41.33;;;30.95;;
66264;SDS011;53055;44.648;21.148;2022-12-18T03:49:21;41.88;;;31.92;;
66264;SDS011;53055;44.648;21.148;2022-12-18T03:51:54;42.92;;;31.08;;
66264;SDS011;53055;44.648;21.148;2022-12-18T03:56:50;47.10;;;35.15;;
66264;SDS011;53055;44.648;21.148;2022-12-18T03:59:19;37.50;;;29.58;;
66264;SDS011;53055;44.648;21.148;2022-12-18T04:01:47;37.47;;;28.83;;
66264;SDS011;53055;44.648;21.148;2022-12-18T04:04:14;41.30;;;32.10;;
66264;SDS011;53055;44.648;21.148;2022-12-18T04:06:41;39.60;;;30.90;;
66264;SDS011;53055;44.648;21.148;2022-12-18T04:09:09;50.08;;;39.42;;
66264;SDS011;53055;44.648;21.148;2022-12-18T04:11:35;50.30;;;37.55;;
66264;SDS011;53055;44.648;21.148;2022-12-18T04:14:01;37.38;;;28.95;;
66264;SDS011;53055;44.648;21.148;2022-12-18T04:16:27;36.65;;;28.35;;
66264;SDS011;53055;44.648;21.148;2022-12-18T04:18:54;37.70;;;29.65;;
66264;SDS011;53055;44.648;21.148;2022-12-18T04:21:20;37.75;;;29.90;;
66264;SDS011;53055;44.648;21.148;2022-12-18T04:23:47;46.17;;;34.08;;
66264;SDS011;53055;44.648;21.148;2022-12-18T04:26:13;37.40;;;27.42;;
66264;SDS011;53055;44.648;21.148;2022-12-18T04:28:39;41.60;;;33.22;;
66264;SDS011;53055;44.648;21.148;2022-12-18T04:31:05;70.03;;;62.40;;
66264;SDS011;53055;44.648;21.148;2022-12-18T04:33:31;86.93;;;78.43;;
66264;SDS011;53055;44.648;21.148;2022-12-18T04:35:57;36.50;;;28.48;;
66264;SDS011;53055;44.648;21.148;2022-12-18T04:38:23;51.13;;;45.08;;
66264;SDS011;53055;44.648;21.148;2022-12-18T04:40:49;43.75;;;32.90;;
66264;SDS011;53055;44.648;21.148;2022-12-18T04:43:15;38.42;;;30.52;;
66264;SDS011;53055;44.648;21.148;2022-12-18T04:45:42;45.97;;;33.65;;
66264;SDS011;53055;44.648;21.148;2022-12-18T04:48:08;36.97;;;28.13;;
66264;SDS011;53055;44.648;21.148;2022-12-18T04:50:34;41.70;;;34.10;;
66264;SDS011;53055;44.648;21.148;2022-12-18T04:53:00;36.75;;;28.58;;
66264;SDS011;53055;44.648;21.148;2022-12-18T04:55:26;39.33;;;29.73;;
66264;SDS011;53055;44.648;21.148;2022-12-18T04:57:52;34.05;;;26.77;;
66264;SDS011;53055;44.648;21.148;2022-12-18T05:00:18;34.80;;;27.80;;
66264;SDS011;53055;44.648;21.148;2022-12-18T05:02:45;35.03;;;27.45;;
66264;SDS011;53055;44.648;21.148;2022-12-18T05:05:11;33.55;;;26.30;;
66264;SDS011;53055;44.648;21.148;2022-12-18T05:07:37;42.53;;;33.90;;
66264;SDS011;53055;44.648;21.148;2022-12-18T05:10:03;37.67;;;29.90;;
66264;SDS011;53055;44.648;21.148;2022-12-18T05:12:30;37.67;;;29.13;;
66264;SDS011;53055;44.648;21.148;2022-12-18T05:14:56;36.60;;;27.67;;
66264;SDS011;53055;44.648;21.148;2022-12-18T05:17:22;35.92;;;25.92;;
66264;SDS011;53055;44.648;21.148;2022-12-18T05:19:48;34.72;;;26.60;;
66264;SDS011;53055;44.648;21.148;2022-12-18T05:22:15;34.13;;;25.55;;
66264;SDS011;53055;44.648;21.148;2022-12-18T05:24:41;33.35;;;25.75;;
66264;SDS011;53055;44.648;21.148;2022-12-18T05:27:07;39.22;;;29.30;;
66264;SDS011;53055;44.648;21.148;2022-12-18T05:29:33;37.97;;;28.52;;
66264;SDS011;53055;44.648;21.148;2022-12-18T05:31:59;33.70;;;24.42;;
66264;SDS011;53055;44.648;21.148;2022-12-18T05:34:25;36.45;;;26.70;;
66264;SDS011;53055;44.648;21.148;2022-12-18T05:36:51;48.72;;;35.33;;
66264;SDS011;53055;44.648;21.148;2022-12-18T05:39:17;77.22;;;52.15;;
66264;SDS011;53055;44.648;21.148;2022-12-18T05:41:43;39.38;;;29.65;;
66264;SDS011;53055;44.648;21.148;2022-12-18T05:44:09;48.55;;;36.08;;
66264;SDS011;53055;44.648;21.148;2022-12-18T05:46:35;43.40;;;32.88;;
66264;SDS011;53055;44.648;21.148;2022-12-18T05:49:01;37.67;;;28.15;;
66264;SDS011;53055;44.648;21.148;2022-12-18T05:51:27;68.53;;;52.35;;
66264;SDS011;53055;44.648;21.148;2022-12-18T05:53:54;45.67;;;34.35;;
66264;SDS011;53055;44.648;21.148;2022-12-18T05:56:21;69.90;;;53.20;;
66264;SDS011;53055;44.648;21.148;2022-12-18T05:58:50;45.45;;;34.63;;
66264;SDS011;53055;44.648;21.148;2022-12-18T06:01:18;46.10;;;34.65;;
66264;SDS011;53055;44.648;21.148;2022-12-18T06:03:46;70.63;;;51.15;;
66264;SDS011;53055;44.648;21.148;2022-12-18T06:08:45;46.97;;;34.67;;
66264;SDS011;53055;44.648;21.148;2022-12-18T06:11:11;49.13;;;34.03;;
66264;SDS011;53055;44.648;21.148;2022-12-18T06:13:38;45.53;;;32.60;;
66264;SDS011;53055;44.648;21.148;2022-12-18T06:16:04;43.00;;;31.80;;
66264;SDS011;53055;44.648;21.148;2022-12-18T06:18:30;41.53;;;31.50;;
66264;SDS011;53055;44.648;21.148;2022-12-18T06:20:57;44.22;;;31.58;;
66264;SDS011;53055;44.648;21.148;2022-12-18T06:23:23;49.85;;;36.75;;
66264;SDS011;53055;44.648;21.148;2022-12-18T06:25:49;57.85;;;41.47;;
66264;SDS011;53055;44.648;21.148;2022-12-18T06:28:15;60.65;;;44.53;;
66264;SDS011;53055;44.648;21.148;2022-12-18T06:30:47;57.30;;;43.60;;
66264;SDS011;53055;44.648;21.148;2022-12-18T06:33:14;42.60;;;31.13;;
66264;SDS011;53055;44.648;21.148;2022-12-18T06:35:41;41.60;;;29.40;;
66264;SDS011;53055;44.648;21.148;2022-12-18T06:38:07;42.72;;;31.10;;
66264;SDS011;53055;44.648;21.148;2022-12-18T06:40:33;45.05;;;33.00;;
66264;SDS011;53055;44.648;21.148;2022-12-18T06:42:59;54.63;;;35.95;;
66264;SDS011;53055;44.648;21.148;2022-12-18T06:45:25;48.55;;;34.67;;
66264;SDS011;53055;44.648;21.148;2022-12-18T06:47:51;47.15;;;33.95;;
66264;SDS011;53055;44.648;21.148;2022-12-18T06:50:17;48.83;;;34.47;;
66264;SDS011;53055;44.648;21.148;2022-12-18T06:52:43;44.10;;;31.95;;
66264;SDS011;53055;44.648;21.148;2022-12-18T06:55:09;49.53;;;35.78;;
66264;SDS011;53055;44.648;21.148;2022-12-18T06:57:36;82.30;;;64.03;;
66264;SDS011;53055;44.648;21.148;2022-12-18T07:00:03;77.88;;;59.40;;
66264;SDS011;53055;44.648;21.148;2022-12-18T07:02:29;80.57;;;62.90;;
66264;SDS011;53055;44.648;21.148;2022-12-18T07:04:55;48.40;;;37.30;;
66264;SDS011;53055;44.648;21.148;2022-12-18T07:07:21;56.38;;;41.88;;
66264;SDS011;53055;44.648;21.148;2022-12-18T07:09:48;102.35;;;74.72;;
66264;SDS011;53055;44.648;21.148;2022-12-18T07:12:15;76.20;;;53.13;;
66264;SDS011;53055;44.648;21.148;2022-12-18T07:14:41;68.97;;;48.72;;
66264;SDS011;53055;44.648;21.148;2022-12-18T07:17:07;106.18;;;72.05;;
66264;SDS011;53055;44.648;21.148;2022-12-18T07:19:33;77.30;;;53.97;;
66264;SDS011;53055;44.648;21.148;2022-12-18T07:21:59;103.00;;;67.35;;
66264;SDS011;53055;44.648;21.148;2022-12-18T07:24:25;218.30;;;161.48;;
66264;SDS011;53055;44.648;21.148;2022-12-18T07:26:51;103.72;;;92.82;;
66264;SDS011;53055;44.648;21.148;2022-12-18T07:29:17;197.27;;;178.00;;
66264;SDS011;53055;44.648;21.148;2022-12-18T07:31:44;55.05;;;45.50;;
66264;SDS011;53055;44.648;21.148;2022-12-18T07:34:13;68.93;;;59.75;;
66264;SDS011;53055;44.648;21.148;2022-12-18T07:36:40;67.88;;;55.47;;
66264;SDS011;53055;44.648;21.148;2022-12-18T07:39:06;53.95;;;41.50;;
66264;SDS011;53055;44.648;21.148;2022-12-18T07:41:32;84.40;;;57.38;;
66264;SDS011;53055;44.648;21.148;2022-12-18T07:43:58;92.75;;;58.13;;
66264;SDS011;53055;44.648;21.148;2022-12-18T07:46:24;60.17;;;45.45;;
66264;SDS011;53055;44.648;21.148;2022-12-18T07:48:50;73.80;;;54.03;;
66264;SDS011;53055;44.648;21.148;2022-12-18T07:51:17;77.43;;;61.15;;
66264;SDS011;53055;44.648;21.148;2022-12-18T07:53:43;109.22;;;87.82;;
66264;SDS011;53055;44.648;21.148;2022-12-18T07:56:10;82.18;;;65.30;;
66264;SDS011;53055;44.648;21.148;2022-12-18T07:58:37;81.50;;;62.83;;
66264;SDS011;53055;44.648;21.148;2022-12-18T08:03:29;87.13;;;71.57;;
66264;SDS011;53055;44.648;21.148;2022-12-18T08:06:02;84.93;;;67.68;;
66264;SDS011;53055;44.648;21.148;2022-12-18T08:08:29;121.75;;;93.18;;
66264;SDS011;53055;44.648;21.148;2022-12-18T08:10:55;103.57;;;77.50;;
66264;SDS011;53055;44.648;21.148;2022-12-18T08:13:21;81.25;;;57.92;;
66264;SDS011;53055;44.648;21.148;2022-12-18T08:16:06;111.78;;;87.60;;
66264;SDS011;53055;44.648;21.148;2022-12-18T08:18:34;101.82;;;80.93;;
66264;SDS011;53055;44.648;21.148;2022-12-18T08:21:10;102.80;;;81.13;;
66264;SDS011;53055;44.648;21.148;2022-12-18T08:23:36;79.65;;;57.45;;
66264;SDS011;53055;44.648;21.148;2022-12-18T08:26:03;60.30;;;46.00;;
66264;SDS011;53055;44.648;21.148;2022-12-18T08:28:29;118.00;;;79.43;;
66264;SDS011;53055;44.648;21.148;2022-12-18T08:30:55;124.25;;;87.90;;
66264;SDS011;53055;44.648;21.148;2022-12-18T08:33:21;103.55;;;75.60;;
66264;SDS011;53055;44.648;21.148;2022-12-18T08:35:47;50.00;;;36.05;;
66264;SDS011;53055;44.648;21.148;2022-12-18T08:38:13;61.63;;;47.47;;
66264;SDS011;53055;44.648;21.148;2022-12-18T08:40:39;42.72;;;31.77;;
66264;SDS011;53055;44.648;21.148;2022-12-18T08:43:05;43.47;;;32.45;;
66264;SDS011;53055;44.648;21.148;2022-12-18T08:45:50;47.92;;;34.78;;
66264;SDS011;53055;44.648;21.148;2022-12-18T08:48:16;44.70;;;32.88;;
66264;SDS011;53055;44.648;21.148;2022-12-18T08:50:42;40.85;;;31.20;;
66264;SDS011;53055;44.648;21.148;2022-12-18T08:53:08;42.83;;;31.60;;
66264;SDS011;53055;44.648;21.148;2022-12-18T08:55:34;40.90;;;30.63;;
66264;SDS011;53055;44.648;21.148;2022-12-18T08:58:00;40.83;;;30.50;;
66264;SDS011;53055;44.648;21.148;2022-12-18T09:00:26;40.58;;;30.83;;
66264;SDS011;53055;44.648;21.148;2022-12-18T09:02:52;41.47;;;31.00;;
66264;SDS011;53055;44.648;21.148;2022-12-18T09:05:18;41.60;;;30.55;;
66264;SDS011;53055;44.648;21.148;2022-12-18T09:07:44;38.05;;;28.42;;
66264;SDS011;53055;44.648;21.148;2022-12-18T09:10:10;38.60;;;28.77;;
66264;SDS011;53055;44.648;21.148;2022-12-18T09:12:36;38.17;;;28.52;;
66264;SDS011;53055;44.648;21.148;2022-12-18T09:15:02;40.75;;;30.17;;
66264;SDS011;53055;44.648;21.148;2022-12-18T09:17:28;38.40;;;28.33;;
66264;SDS011;53055;44.648;21.148;2022-12-18T09:19:54;38.42;;;29.13;;
66264;SDS011;53055;44.648;21.148;2022-12-18T09:22:20;39.40;;;29.08;;
66264;SDS011;53055;44.648;21.148;2022-12-18T09:24:46;37.67;;;28.98;;
66264;SDS011;53055;44.648;21.148;2022-12-18T09:27:14;39.78;;;29.90;;
66264;SDS011;53055;44.648;21.148;2022-12-18T09:29:40;40.92;;;30.15;;
66264;SDS011;53055;44.648;21.148;2022-12-18T09:32:06;36.65;;;28.65;;
66264;SDS011;53055;44.648;21.148;2022-12-18T09:34:32;37.78;;;29.20;;
66264;SDS011;53055;44.648;21.148;2022-12-18T09:36:58;38.55;;;28.88;;
66264;SDS011;53055;44.648;21.148;2022-12-18T09:39:24;37.83;;;28.67;;
66264;SDS011;53055;44.648;21.148;2022-12-18T09:41:54;41.97;;;29.90;;
66264;SDS011;53055;44.648;21.148;2022-12-18T09:44:25;41.55;;;29.83;;
66264;SDS011;53055;44.648;21.148;2022-12-18T09:47:13;39.88;;;30.80;;
66264;SDS011;53055;44.648;21.148;2022-12-18T09:49:42;38.83;;;29.77;;
66264;SDS011;53055;44.648;21.148;2022-12-18T09:52:30;38.60;;;30.63;;
66264;SDS011;53055;44.648;21.148;2022-12-18T09:54:57;39.58;;;30.55;;
66264;SDS011;53055;44.648;21.148;2022-12-18T09:57:25;44.10;;;31.30;;
66264;SDS011;53055;44.648;21.148;2022-12-18T09:59:55;49.17;;;38.70;;
66264;SDS011;53055;44.648;21.148;2022-12-18T10:02:25;40.95;;;30.38;;
66264;SDS011;53055;44.648;21.148;2022-12-18T10:05:02;42.55;;;31.63;;
66264;SDS011;53055;44.648;21.148;2022-12-18T10:10:07;38.53;;;30.27;;
66264;SDS011;53055;44.648;21.148;2022-12-18T10:12:42;40.88;;;30.05;;
66264;SDS011;53055;44.648;21.148;2022-12-18T10:15:19;41.13;;;30.90;;
66264;SDS011;53055;44.648;21.148;2022-12-18T10:20:38;41.22;;;31.33;;
66264;SDS011;53055;44.648;21.148;2022-12-18T10:28:20;81.10;;;56.97;;
66264;SDS011;53055;44.648;21.148;2022-12-18T10:30:46;40.08;;;30.20;;
66264;SDS011;53055;44.648;21.148;2022-12-18T10:33:16;40.75;;;31.73;;
66264;SDS011;53055;44.648;21.148;2022-12-18T10:35:43;53.65;;;37.58;;
66264;SDS011;53055;44.648;21.148;2022-12-18T10:46:00;49.45;;;35.42;;
66264;SDS011;53055;44.648;21.148;2022-12-18T10:48:26;40.95;;;31.05;;
66264;SDS011;53055;44.648;21.148;2022-12-18T10:50:53;60.08;;;53.60;;
66264;SDS011;53055;44.648;21.148;2022-12-18T10:53:21;39.83;;;30.75;;
66264;SDS011;53055;44.648;21.148;2022-12-18T10:55:48;41.17;;;29.92;;
66264;SDS011;53055;44.648;21.148;2022-12-18T11:03:30;41.20;;;30.60;;
66264;SDS011;53055;44.648;21.148;2022-12-18T11:06:01;40.60;;;30.50;;
66264;SDS011;53055;44.648;21.148;2022-12-18T11:08:29;41.45;;;30.33;;
66264;SDS011;53055;44.648;21.148;2022-12-18T11:10:55;43.22;;;33.97;;
66264;SDS011;53055;44.648;21.148;2022-12-18T11:13:22;41.35;;;30.73;;
66264;SDS011;53055;44.648;21.148;2022-12-18T11:15:49;42.58;;;31.90;;
66264;SDS011;53055;44.648;21.148;2022-12-18T11:18:16;42.40;;;32.63;;
66264;SDS011;53055;44.648;21.148;2022-12-18T11:20:44;43.83;;;30.73;;
66264;SDS011;53055;44.648;21.148;2022-12-18T11:23:15;43.67;;;31.98;;
66264;SDS011;53055;44.648;21.148;2022-12-18T11:25:41;43.25;;;31.75;;
66264;SDS011;53055;44.648;21.148;2022-12-18T11:28:26;40.50;;;29.83;;
66264;SDS011;53055;44.648;21.148;2022-12-18T11:31:26;40.83;;;31.67;;
66264;SDS011;53055;44.648;21.148;2022-12-18T11:33:56;46.50;;;35.53;;
66264;SDS011;53055;44.648;21.148;2022-12-18T11:36:25;66.50;;;47.60;;
66264;SDS011;53055;44.648;21.148;2022-12-18T11:38:54;57.75;;;44.50;;
66264;SDS011;53055;44.648;21.148;2022-12-18T11:41:23;41.72;;;31.58;;
66264;SDS011;53055;44.648;21.148;2022-12-18T11:44:11;43.80;;;31.25;;
66264;SDS011;53055;44.648;21.148;2022-12-18T11:46:42;45.75;;;33.90;;
66264;SDS011;53055;44.648;21.148;2022-12-18T11:49:12;79.85;;;64.55;;
66264;SDS011;53055;44.648;21.148;2022-12-18T11:51:48;58.22;;;43.13;;
66264;SDS011;53055;44.648;21.148;2022-12-18T11:54:16;43.30;;;32.05;;
66264;SDS011;53055;44.648;21.148;2022-12-18T12:02:17;37.97;;;28.77;;
66264;SDS011;53055;44.648;21.148;2022-12-18T12:20:23;84.75;;;65.28;;
66264;SDS011;53055;44.648;21.148;2022-12-18T12:25:29;75.65;;;59.13;;
66264;SDS011;53055;44.648;21.148;2022-12-18T12:33:01;45.72;;;33.58;;
66264;SDS011;53055;44.648;21.148;2022-12-18T12:38:13;86.00;;;77.07;;
66264;SDS011;53055;44.648;21.148;2022-12-18T12:40:46;66.05;;;53.72;;
66264;SDS011;53055;44.648;21.148;2022-12-18T12:45:57;37.83;;;27.25;;
66264;SDS011;53055;44.648;21.148;2022-12-18T12:50:50;53.53;;;38.80;;
66264;SDS011;53055;44.648;21.148;2022-12-18T12:53:21;47.22;;;33.78;;
66264;SDS011;53055;44.648;21.148;2022-12-18T12:55:47;53.67;;;40.10;;
66264;SDS011;53055;44.648;21.148;2022-12-18T12:58:26;45.25;;;35.88;;
66264;SDS011;53055;44.648;21.148;2022-12-18T13:01:18;50.33;;;36.58;;
66264;SDS011;53055;44.648;21.148;2022-12-18T13:03:54;91.68;;;80.00;;
66264;SDS011;53055;44.648;21.148;2022-12-18T13:09:06;55.65;;;44.38;;
66264;SDS011;53055;44.648;21.148;2022-12-18T13:11:35;42.95;;;33.53;;
66264;SDS011;53055;44.648;21.148;2022-12-18T13:14:24;44.80;;;32.40;;
66264;SDS011;53055;44.648;21.148;2022-12-18T13:16:52;48.72;;;31.45;;
66264;SDS011;53055;44.648;21.148;2022-12-18T13:19:21;47.78;;;36.50;;
66264;SDS011;53055;44.648;21.148;2022-12-18T13:21:56;54.63;;;37.15;;
66264;SDS011;53055;44.648;21.148;2022-12-18T13:24:26;51.92;;;37.42;;
66264;SDS011;53055;44.648;21.148;2022-12-18T13:26:54;54.05;;;39.28;;
66264;SDS011;53055;44.648;21.148;2022-12-18T13:29:53;47.28;;;35.60;;
66264;SDS011;53055;44.648;21.148;2022-12-18T13:32:24;57.60;;;43.63;;
66264;SDS011;53055;44.648;21.148;2022-12-18T13:37:39;44.83;;;32.60;;
66264;SDS011;53055;44.648;21.148;2022-12-18T13:42:50;47.85;;;36.50;;
66264;SDS011;53055;44.648;21.148;2022-12-18T13:45:36;52.10;;;36.92;;
66264;SDS011;53055;44.648;21.148;2022-12-18T13:48:03;47.38;;;33.22;;
66264;SDS011;53055;44.648;21.148;2022-12-18T13:50:29;55.58;;;37.00;;
66264;SDS011;53055;44.648;21.148;2022-12-18T13:52:56;53.38;;;40.85;;
66264;SDS011;53055;44.648;21.148;2022-12-18T13:55:23;56.03;;;42.05;;
66264;SDS011;53055;44.648;21.148;2022-12-18T13:57:49;51.63;;;36.80;;
66264;SDS011;53055;44.648;21.148;2022-12-18T14:02:48;64.97;;;44.60;;
66264;SDS011;53055;44.648;21.148;2022-12-18T14:05:27;60.03;;;42.40;;
66264;SDS011;53055;44.648;21.148;2022-12-18T14:07:55;54.20;;;35.17;;
66264;SDS011;53055;44.648;21.148;2022-12-18T14:10:21;46.95;;;34.33;;
66264;SDS011;53055;44.648;21.148;2022-12-18T14:12:48;54.65;;;38.42;;
66264;SDS011;53055;44.648;21.148;2022-12-18T14:17:53;67.05;;;49.03;;
66264;SDS011;53055;44.648;21.148;2022-12-18T14:20:20;62.70;;;46.72;;
66264;SDS011;53055;44.648;21.148;2022-12-18T14:22:46;85.93;;;64.78;;
66264;SDS011;53055;44.648;21.148;2022-12-18T14:27:47;83.40;;;64.10;;
66264;SDS011;53055;44.648;21.148;2022-12-18T14:30:23;73.45;;;54.50;;
66264;SDS011;53055;44.648;21.148;2022-12-18T14:33:03;69.18;;;49.17;;
66264;SDS011;53055;44.648;21.148;2022-12-18T14:35:29;75.55;;;57.65;;
66264;SDS011;53055;44.648;21.148;2022-12-18T14:38:17;60.03;;;43.80;;
66264;SDS011;53055;44.648;21.148;2022-12-18T14:40:45;83.20;;;52.83;;
66264;SDS011;53055;44.648;21.148;2022-12-18T14:43:11;119.68;;;73.55;;
66264;SDS011;53055;44.648;21.148;2022-12-18T14:45:43;407.25;;;221.20;;
66264;SDS011;53055;44.648;21.148;2022-12-18T14:50:37;110.32;;;59.85;;
66264;SDS011;53055;44.648;21.148;2022-12-18T14:53:03;77.45;;;46.60;;
66264;SDS011;53055;44.648;21.148;2022-12-18T14:55:31;63.42;;;43.22;;
66264;SDS011;53055;44.648;21.148;2022-12-18T14:57:57;100.60;;;58.15;;
66264;SDS011;53055;44.648;21.148;2022-12-18T15:00:24;87.57;;;59.58;;
66264;SDS011;53055;44.648;21.148;2022-12-18T15:02:54;59.45;;;48.22;;
66264;SDS011;53055;44.648;21.148;2022-12-18T15:05:25;173.88;;;81.38;;
66264;SDS011;53055;44.648;21.148;2022-12-18T15:07:53;227.93;;;98.38;;
66264;SDS011;53055;44.648;21.148;2022-12-18T15:12:46;119.75;;;60.58;;
66264;SDS011;53055;44.648;21.148;2022-12-18T15:18:41;44.28;;;32.58;;
66264;SDS011;53055;44.648;21.148;2022-12-18T15:23:14;47.83;;;37.92;;
66264;SDS011;53055;44.648;21.148;2022-12-18T15:25:41;65.47;;;53.35;;
66264;SDS011;53055;44.648;21.148;2022-12-18T15:36:12;50.92;;;38.05;;
66264;SDS011;53055;44.648;21.148;2022-12-18T15:38:39;53.22;;;40.35;;
66264;SDS011;53055;44.648;21.148;2022-12-18T15:41:05;65.55;;;58.65;;
66264;SDS011;53055;44.648;21.148;2022-12-18T15:43:32;48.80;;;37.10;;
66264;SDS011;53055;44.648;21.148;2022-12-18T15:46:05;65.05;;;52.08;;
66264;SDS011;53055;44.648;21.148;2022-12-18T15:48:32;52.38;;;40.25;;
66264;SDS011;53055;44.648;21.148;2022-12-18T15:50:59;40.30;;;31.25;;
66264;SDS011;53055;44.648;21.148;2022-12-18T15:53:25;37.88;;;30.00;;
66264;SDS011;53055;44.648;21.148;2022-12-18T15:55:52;49.13;;;42.10;;
66264;SDS011;53055;44.648;21.148;2022-12-18T15:58:36;54.88;;;43.17;;
66264;SDS011;53055;44.648;21.148;2022-12-18T16:01:02;88.57;;;66.15;;
66264;SDS011;53055;44.648;21.148;2022-12-18T16:03:28;45.78;;;35.13;;
66264;SDS011;53055;44.648;21.148;2022-12-18T16:05:55;50.28;;;40.95;;
66264;SDS011;53055;44.648;21.148;2022-12-18T16:08:23;60.58;;;52.58;;
66264;SDS011;53055;44.648;21.148;2022-12-18T16:10:49;43.63;;;36.15;;
66264;SDS011;53055;44.648;21.148;2022-12-18T16:13:15;42.10;;;33.00;;
66264;SDS011;53055;44.648;21.148;2022-12-18T16:15:43;38.13;;;29.05;;
66264;SDS011;53055;44.648;21.148;2022-12-18T16:18:09;40.50;;;32.03;;
66264;SDS011;53055;44.648;21.148;2022-12-18T16:20:35;39.92;;;31.15;;